sensor_id;sensor_type;location;lat;lon;timestamp;pressure;altitude;pressure_sealevel;temperature
77414;BMP280;66486;49.992;19.164;2023-05-24T00:01:46;98578.19;;;17.60
77414;BMP280;66486;49.992;19.164;2023-05-24T00:04:12;98571.53;;;17.46
77414;BMP280;66486;49.992;19.164;2023-05-24T00:06:40;98568.25;;;17.42
77414;BMP280;66486;49.992;19.164;2023-05-24T00:09:06;98567.00;;;17.58
77414;BMP280;66486;49.992;19.164;2023-05-24T00:11:33;98574.59;;;17.83
77414;BMP280;66486;49.992;19.164;2023-05-24T00:13:58;98568.50;;;17.73
77414;BMP280;66486;49.992;19.164;2023-05-24T00:16:25;98572.19;;;17.56
77414;BMP280;66486;49.992;19.164;2023-05-24T00:18:51;98566.34;;;17.34
77414;BMP280;66486;49.992;19.164;2023-05-24T00:21:17;98571.03;;;17.48
77414;BMP280;66486;49.992;19.164;2023-05-24T00:23:43;98566.53;;;17.30
77414;BMP280;66486;49.992;19.164;2023-05-24T00:26:10;98575.66;;;17.27
77414;BMP280;66486;49.992;19.164;2023-05-24T00:28:36;98572.25;;;17.32
77414;BMP280;66486;49.992;19.164;2023-05-24T00:31:02;98567.19;;;17.69
77414;BMP280;66486;49.992;19.164;2023-05-24T00:33:28;98571.88;;;17.83
77414;BMP280;66486;49.992;19.164;2023-05-24T00:35:54;98574.91;;;17.85
77414;BMP280;66486;49.992;19.164;2023-05-24T00:38:26;98572.25;;;17.91
77414;BMP280;66486;49.992;19.164;2023-05-24T00:40:53;98574.75;;;18.09
77414;BMP280;66486;49.992;19.164;2023-05-24T00:43:24;98577.31;;;17.83
77414;BMP280;66486;49.992;19.164;2023-05-24T00:46:15;98571.22;;;17.88
77414;BMP280;66486;49.992;19.164;2023-05-24T00:48:43;98578.63;;;17.87
77414;BMP280;66486;49.992;19.164;2023-05-24T00:51:11;98581.66;;;17.90
77414;BMP280;66486;49.992;19.164;2023-05-24T00:53:37;98572.06;;;17.94
77414;BMP280;66486;49.992;19.164;2023-05-24T00:56:05;98577.63;;;17.70
77414;BMP280;66486;49.992;19.164;2023-05-24T00:58:31;98580.34;;;17.70
77414;BMP280;66486;49.992;19.164;2023-05-24T01:00:59;98577.13;;;17.57
77414;BMP280;66486;49.992;19.164;2023-05-24T01:03:26;98580.16;;;17.45
77414;BMP280;66486;49.992;19.164;2023-05-24T01:05:58;98583.31;;;17.43
77414;BMP280;66486;49.992;19.164;2023-05-24T01:08:45;98585.38;;;17.34
77414;BMP280;66486;49.992;19.164;2023-05-24T01:11:25;98590.59;;;17.46
77414;BMP280;66486;49.992;19.164;2023-05-24T01:14:11;98580.41;;;17.32
77414;BMP280;66486;49.992;19.164;2023-05-24T01:16:49;98597.69;;;17.44
77414;BMP280;66486;49.992;19.164;2023-05-24T01:27:46;98585.38;;;17.19
77414;BMP280;66486;49.992;19.164;2023-05-24T01:30:12;98595.47;;;17.19
77414;BMP280;66486;49.992;19.164;2023-05-24T01:32:39;98594.88;;;17.38
77414;BMP280;66486;49.992;19.164;2023-05-24T01:35:05;98594.78;;;17.62
77414;BMP280;66486;49.992;19.164;2023-05-24T01:37:31;98594.03;;;17.61
77414;BMP280;66486;49.992;19.164;2023-05-24T01:39:58;98587.75;;;17.41
77414;BMP280;66486;49.992;19.164;2023-05-24T01:42:57;98599.59;;;17.52
77414;BMP280;66486;49.992;19.164;2023-05-24T01:51:06;98596.19;;;17.57
77414;BMP280;66486;49.992;19.164;2023-05-24T01:53:34;98594.72;;;17.42
77414;BMP280;66486;49.992;19.164;2023-05-24T01:56:05;98602.88;;;17.56
77414;BMP280;66486;49.992;19.164;2023-05-24T01:58:32;98597.84;;;17.26
77414;BMP280;66486;49.992;19.164;2023-05-24T02:00:59;98597.44;;;17.42
77414;BMP280;66486;49.992;19.164;2023-05-24T02:03:26;98602.69;;;17.74
77414;BMP280;66486;49.992;19.164;2023-05-24T02:05:52;98603.69;;;17.92
77414;BMP280;66486;49.992;19.164;2023-05-24T02:08:18;98613.38;;;17.63
77414;BMP280;66486;49.992;19.164;2023-05-24T02:10:44;98597.06;;;17.63
77414;BMP280;66486;49.992;19.164;2023-05-24T02:13:10;98613.38;;;17.63
77414;BMP280;66486;49.992;19.164;2023-05-24T02:15:36;98609.66;;;17.61
77414;BMP280;66486;49.992;19.164;2023-05-24T02:18:02;98603.84;;;17.30
77414;BMP280;66486;49.992;19.164;2023-05-24T02:20:29;98613.44;;;17.54
77414;BMP280;66486;49.992;19.164;2023-05-24T02:23:02;98604.66;;;17.59
77414;BMP280;66486;49.992;19.164;2023-05-24T02:25:29;98621.44;;;17.72
77414;BMP280;66486;49.992;19.164;2023-05-24T02:27:57;98612.91;;;17.79
77414;BMP280;66486;49.992;19.164;2023-05-24T02:30:23;98616.66;;;17.82
77414;BMP280;66486;49.992;19.164;2023-05-24T02:32:49;98616.09;;;17.78
77414;BMP280;66486;49.992;19.164;2023-05-24T02:35:15;98622.84;;;17.53
77414;BMP280;66486;49.992;19.164;2023-05-24T02:37:42;98618.44;;;17.56
77414;BMP280;66486;49.992;19.164;2023-05-24T02:40:08;98613.66;;;17.51
77414;BMP280;66486;49.992;19.164;2023-05-24T02:42:34;98612.59;;;17.34
77414;BMP280;66486;49.992;19.164;2023-05-24T02:45:00;98620.66;;;17.43
77414;BMP280;66486;49.992;19.164;2023-05-24T02:47:26;98619.78;;;17.60
77414;BMP280;66486;49.992;19.164;2023-05-24T02:49:53;98625.22;;;17.22
77414;BMP280;66486;49.992;19.164;2023-05-24T02:52:19;98625.03;;;17.26
77414;BMP280;66486;49.992;19.164;2023-05-24T02:54:48;98621.59;;;17.40
77414;BMP280;66486;49.992;19.164;2023-05-24T02:57:15;98620.50;;;17.32
77414;BMP280;66486;49.992;19.164;2023-05-24T02:59:41;98615.13;;;17.37
77414;BMP280;66486;49.992;19.164;2023-05-24T03:02:08;98628.88;;;17.19
77414;BMP280;66486;49.992;19.164;2023-05-24T03:04:34;98625.22;;;17.22
77414;BMP280;66486;49.992;19.164;2023-05-24T03:07:00;98621.22;;;17.32
77414;BMP280;66486;49.992;19.164;2023-05-24T03:09:26;98631.38;;;17.46
77414;BMP280;66486;49.992;19.164;2023-05-24T03:11:52;98638.41;;;17.15
77414;BMP280;66486;49.992;19.164;2023-05-24T03:14:19;98637.97;;;17.16
77414;BMP280;66486;49.992;19.164;2023-05-24T03:16:48;98636.19;;;17.13
77414;BMP280;66486;49.992;19.164;2023-05-24T03:19:14;98634.09;;;17.08
77414;BMP280;66486;49.992;19.164;2023-05-24T03:21:42;98645.47;;;16.74
77414;BMP280;66486;49.992;19.164;2023-05-24T03:24:08;98633.13;;;16.96
77414;BMP280;66486;49.992;19.164;2023-05-24T03:26:34;98647.22;;;16.86
77414;BMP280;66486;49.992;19.164;2023-05-24T03:29:00;98642.38;;;16.90
77414;BMP280;66486;49.992;19.164;2023-05-24T03:31:26;98647.81;;;16.90
77414;BMP280;66486;49.992;19.164;2023-05-24T03:33:52;98632.13;;;17.08
77414;BMP280;66486;49.992;19.164;2023-05-24T03:36:18;98648.09;;;17.16
77414;BMP280;66486;49.992;19.164;2023-05-24T03:38:45;98647.56;;;17.26
77414;BMP280;66486;49.992;19.164;2023-05-24T03:41:12;98651.53;;;17.54
77414;BMP280;66486;49.992;19.164;2023-05-24T03:43:37;98650.81;;;17.16
77414;BMP280;66486;49.992;19.164;2023-05-24T03:46:04;98649.59;;;17.17
77414;BMP280;66486;49.992;19.164;2023-05-24T03:48:30;98647.22;;;17.10
77414;BMP280;66486;49.992;19.164;2023-05-24T03:50:56;98657.03;;;16.83
77414;BMP280;66486;49.992;19.164;2023-05-24T03:53:21;98648.84;;;16.92
77414;BMP280;66486;49.992;19.164;2023-05-24T03:55:48;98652.97;;;16.55
77414;BMP280;66486;49.992;19.164;2023-05-24T03:58:14;98645.91;;;16.49
77414;BMP280;66486;49.992;19.164;2023-05-24T04:00:40;98657.16;;;16.65
77414;BMP280;66486;49.992;19.164;2023-05-24T04:03:05;98668.09;;;16.80
77414;BMP280;66486;49.992;19.164;2023-05-24T04:05:32;98657.28;;;16.71
77414;BMP280;66486;49.992;19.164;2023-05-24T04:07:58;98676.41;;;16.44
77414;BMP280;66486;49.992;19.164;2023-05-24T04:10:24;98679.47;;;16.37
77414;BMP280;66486;49.992;19.164;2023-05-24T04:12:50;98674.69;;;16.55
77414;BMP280;66486;49.992;19.164;2023-05-24T04:15:16;98678.81;;;16.74
77414;BMP280;66486;49.992;19.164;2023-05-24T04:17:43;98684.41;;;17.03
77414;BMP280;66486;49.992;19.164;2023-05-24T04:20:10;98684.69;;;16.82
77414;BMP280;66486;49.992;19.164;2023-05-24T04:22:36;98673.06;;;16.81
77414;BMP280;66486;49.992;19.164;2023-05-24T04:25:03;98692.75;;;17.00
77414;BMP280;66486;49.992;19.164;2023-05-24T04:27:29;98685.41;;;16.91
77414;BMP280;66486;49.992;19.164;2023-05-24T04:29:56;98694.69;;;16.76
77414;BMP280;66486;49.992;19.164;2023-05-24T04:32:21;98695.59;;;16.73
77414;BMP280;66486;49.992;19.164;2023-05-24T04:34:49;98700.88;;;16.76
77414;BMP280;66486;49.992;19.164;2023-05-24T04:37:17;98705.47;;;16.94
77414;BMP280;66486;49.992;19.164;2023-05-24T04:39:44;98704.31;;;16.86
77414;BMP280;66486;49.992;19.164;2023-05-24T04:42:13;98710.03;;;16.88
77414;BMP280;66486;49.992;19.164;2023-05-24T04:44:39;98707.34;;;16.79
77414;BMP280;66486;49.992;19.164;2023-05-24T04:47:05;98699.19;;;17.12
77414;BMP280;66486;49.992;19.164;2023-05-24T04:49:31;98716.25;;;17.12
77414;BMP280;66486;49.992;19.164;2023-05-24T04:51:58;98710.34;;;16.81
77414;BMP280;66486;49.992;19.164;2023-05-24T04:54:24;98713.56;;;16.70
77414;BMP280;66486;49.992;19.164;2023-05-24T04:56:50;98711.69;;;16.85
77414;BMP280;66486;49.992;19.164;2023-05-24T04:59:17;98708.72;;;16.74
77414;BMP280;66486;49.992;19.164;2023-05-24T05:01:42;98719.06;;;16.61
77414;BMP280;66486;49.992;19.164;2023-05-24T05:04:09;98730.06;;;16.58
77414;BMP280;66486;49.992;19.164;2023-05-24T05:06:34;98733.03;;;16.36
77414;BMP280;66486;49.992;19.164;2023-05-24T05:09:06;98733.78;;;16.27
77414;BMP280;66486;49.992;19.164;2023-05-24T05:11:38;98741.13;;;16.45
77414;BMP280;66486;49.992;19.164;2023-05-24T05:14:04;98752.06;;;16.09
77414;BMP280;66486;49.992;19.164;2023-05-24T05:16:31;98763.34;;;16.16
77414;BMP280;66486;49.992;19.164;2023-05-24T05:18:57;98762.16;;;15.81
77414;BMP280;66486;49.992;19.164;2023-05-24T05:21:23;98763.66;;;15.73
77414;BMP280;66486;49.992;19.164;2023-05-24T05:23:49;98766.50;;;15.61
77414;BMP280;66486;49.992;19.164;2023-05-24T05:26:15;98769.06;;;15.64
77414;BMP280;66486;49.992;19.164;2023-05-24T05:28:41;98773.47;;;15.71
77414;BMP280;66486;49.992;19.164;2023-05-24T05:31:07;98776.59;;;15.69
77414;BMP280;66486;49.992;19.164;2023-05-24T05:33:33;98780.03;;;15.51
77414;BMP280;66486;49.992;19.164;2023-05-24T05:35:59;98788.59;;;15.32
77414;BMP280;66486;49.992;19.164;2023-05-24T05:38:25;98791.22;;;15.14
77414;BMP280;66486;49.992;19.164;2023-05-24T05:40:51;98789.19;;;15.27
77414;BMP280;66486;49.992;19.164;2023-05-24T05:43:17;98796.75;;;15.41
77414;BMP280;66486;49.992;19.164;2023-05-24T05:45:43;98801.63;;;15.55
77414;BMP280;66486;49.992;19.164;2023-05-24T05:48:09;98801.75;;;15.61
77414;BMP280;66486;49.992;19.164;2023-05-24T05:50:35;98801.31;;;15.62
77414;BMP280;66486;49.992;19.164;2023-05-24T05:53:01;98812.56;;;15.33
77414;BMP280;66486;49.992;19.164;2023-05-24T05:55:27;98809.00;;;15.24
77414;BMP280;66486;49.992;19.164;2023-05-24T05:57:52;98813.13;;;15.28
77414;BMP280;66486;49.992;19.164;2023-05-24T06:00:20;98822.28;;;15.22
77414;BMP280;66486;49.992;19.164;2023-05-24T06:02:46;98824.56;;;15.23
77414;BMP280;66486;49.992;19.164;2023-05-24T06:05:12;98830.13;;;14.98
77414;BMP280;66486;49.992;19.164;2023-05-24T06:07:38;98823.28;;;15.06
77414;BMP280;66486;49.992;19.164;2023-05-24T06:10:05;98832.50;;;14.65
77414;BMP280;66486;49.992;19.164;2023-05-24T06:12:31;98837.09;;;14.56
77414;BMP280;66486;49.992;19.164;2023-05-24T06:14:57;98832.19;;;14.42
77414;BMP280;66486;49.992;19.164;2023-05-24T06:17:23;98843.41;;;14.53
77414;BMP280;66486;49.992;19.164;2023-05-24T06:19:50;98847.88;;;14.47
77414;BMP280;66486;49.992;19.164;2023-05-24T06:22:19;98851.72;;;14.58
77414;BMP280;66486;49.992;19.164;2023-05-24T06:24:46;98850.94;;;14.36
77414;BMP280;66486;49.992;19.164;2023-05-24T06:27:12;98851.16;;;14.63
77414;BMP280;66486;49.992;19.164;2023-05-24T06:29:38;98857.66;;;14.66
77414;BMP280;66486;49.992;19.164;2023-05-24T06:32:04;98852.09;;;14.69
77414;BMP280;66486;49.992;19.164;2023-05-24T06:34:30;98856.31;;;14.92
77414;BMP280;66486;49.992;19.164;2023-05-24T06:36:56;98862.75;;;14.86
77414;BMP280;66486;49.992;19.164;2023-05-24T06:39:22;98870.78;;;14.98
77414;BMP280;66486;49.992;19.164;2023-05-24T06:41:50;98868.22;;;14.95
77414;BMP280;66486;49.992;19.164;2023-05-24T06:44:16;98857.75;;;14.84
77414;BMP280;66486;49.992;19.164;2023-05-24T06:46:42;98876.47;;;14.69
77414;BMP280;66486;49.992;19.164;2023-05-24T06:49:08;98871.69;;;14.73
77414;BMP280;66486;49.992;19.164;2023-05-24T06:51:34;98882.06;;;14.97
77414;BMP280;66486;49.992;19.164;2023-05-24T06:54:02;98885.72;;;15.03
77414;BMP280;66486;49.992;19.164;2023-05-24T06:56:28;98890.47;;;14.68
77414;BMP280;66486;49.992;19.164;2023-05-24T06:58:55;98891.81;;;14.51
77414;BMP280;66486;49.992;19.164;2023-05-24T07:01:21;98889.97;;;14.60
77414;BMP280;66486;49.992;19.164;2023-05-24T07:03:47;98899.78;;;14.89
77414;BMP280;66486;49.992;19.164;2023-05-24T07:06:14;98893.59;;;15.10
77414;BMP280;66486;49.992;19.164;2023-05-24T07:08:41;98899.72;;;15.01
77414;BMP280;66486;49.992;19.164;2023-05-24T07:11:08;98905.97;;;15.20
77414;BMP280;66486;49.992;19.164;2023-05-24T07:13:34;98905.69;;;15.18
77414;BMP280;66486;49.992;19.164;2023-05-24T07:16:00;98912.78;;;15.24
77414;BMP280;66486;49.992;19.164;2023-05-24T07:18:26;98924.84;;;15.54
77414;BMP280;66486;49.992;19.164;2023-05-24T07:20:52;98924.41;;;15.03
77414;BMP280;66486;49.992;19.164;2023-05-24T07:23:19;98931.75;;;14.72
77414;BMP280;66486;49.992;19.164;2023-05-24T07:25:45;98933.94;;;14.86
77414;BMP280;66486;49.992;19.164;2023-05-24T07:28:11;98936.44;;;14.81
77414;BMP280;66486;49.992;19.164;2023-05-24T07:30:40;98937.06;;;14.85
77414;BMP280;66486;49.992;19.164;2023-05-24T07:33:06;98939.88;;;14.94
77414;BMP280;66486;49.992;19.164;2023-05-24T07:35:33;98953.34;;;15.06
77414;BMP280;66486;49.992;19.164;2023-05-24T07:37:59;98945.72;;;15.14
77414;BMP280;66486;49.992;19.164;2023-05-24T07:40:25;98950.47;;;15.22
77414;BMP280;66486;49.992;19.164;2023-05-24T07:42:51;98942.75;;;15.21
77414;BMP280;66486;49.992;19.164;2023-05-24T07:45:17;98950.53;;;15.40
77414;BMP280;66486;49.992;19.164;2023-05-24T07:47:43;98958.09;;;15.45
77414;BMP280;66486;49.992;19.164;2023-05-24T07:50:09;98968.78;;;15.40
77414;BMP280;66486;49.992;19.164;2023-05-24T07:52:36;98964.75;;;15.44
77414;BMP280;66486;49.992;19.164;2023-05-24T07:55:04;98967.81;;;15.56
77414;BMP280;66486;49.992;19.164;2023-05-24T07:57:31;98970.81;;;15.58
77414;BMP280;66486;49.992;19.164;2023-05-24T07:59:58;98978.16;;;15.48
77414;BMP280;66486;49.992;19.164;2023-05-24T08:02:31;98981.31;;;15.25
77414;BMP280;66486;49.992;19.164;2023-05-24T08:04:58;98983.75;;;15.23
77414;BMP280;66486;49.992;19.164;2023-05-24T08:07:24;98987.03;;;15.18
77414;BMP280;66486;49.992;19.164;2023-05-24T08:09:51;98988.13;;;14.86
77414;BMP280;66486;49.992;19.164;2023-05-24T08:12:17;98995.53;;;15.29
77414;BMP280;66486;49.992;19.164;2023-05-24T08:14:43;98988.19;;;14.95
77414;BMP280;66486;49.992;19.164;2023-05-24T08:17:09;98987.16;;;14.80
77414;BMP280;66486;49.992;19.164;2023-05-24T08:19:35;98993.81;;;14.66
77414;BMP280;66486;49.992;19.164;2023-05-24T08:22:01;98994.09;;;14.81
77414;BMP280;66486;49.992;19.164;2023-05-24T08:24:30;98998.38;;;15.13
77414;BMP280;66486;49.992;19.164;2023-05-24T08:26:57;99002.66;;;14.80
77414;BMP280;66486;49.992;19.164;2023-05-24T08:29:23;99004.16;;;14.93
77414;BMP280;66486;49.992;19.164;2023-05-24T08:31:49;99006.47;;;15.04
77414;BMP280;66486;49.992;19.164;2023-05-24T08:34:16;99012.31;;;15.02
77414;BMP280;66486;49.992;19.164;2023-05-24T08:36:42;99020.56;;;14.77
77414;BMP280;66486;49.992;19.164;2023-05-24T08:39:09;99021.53;;;14.83
77414;BMP280;66486;49.992;19.164;2023-05-24T08:41:35;99020.78;;;14.70
77414;BMP280;66486;49.992;19.164;2023-05-24T08:44:05;99002.03;;;14.75
77414;BMP280;66486;49.992;19.164;2023-05-24T08:46:35;99024.53;;;15.19
77414;BMP280;66486;49.992;19.164;2023-05-24T08:49:01;99036.69;;;15.36
77414;BMP280;66486;49.992;19.164;2023-05-24T08:51:32;99036.47;;;15.31
77414;BMP280;66486;49.992;19.164;2023-05-24T08:53:59;99037.25;;;14.75
77414;BMP280;66486;49.992;19.164;2023-05-24T08:56:26;99044.81;;;15.15
77414;BMP280;66486;49.992;19.164;2023-05-24T08:58:54;99052.59;;;15.13
77414;BMP280;66486;49.992;19.164;2023-05-24T09:01:23;99045.50;;;15.06
77414;BMP280;66486;49.992;19.164;2023-05-24T09:03:49;99051.47;;;15.01
77414;BMP280;66486;49.992;19.164;2023-05-24T09:06:17;99061.00;;;15.06
77414;BMP280;66486;49.992;19.164;2023-05-24T09:08:43;99054.63;;;15.00
77414;BMP280;66486;49.992;19.164;2023-05-24T09:11:15;99053.16;;;14.86
77414;BMP280;66486;49.992;19.164;2023-05-24T09:13:43;99062.59;;;14.82
77414;BMP280;66486;49.992;19.164;2023-05-24T09:16:10;99062.28;;;14.67
77414;BMP280;66486;49.992;19.164;2023-05-24T09:18:36;99068.34;;;14.71
77414;BMP280;66486;49.992;19.164;2023-05-24T09:21:02;99074.72;;;14.77
77414;BMP280;66486;49.992;19.164;2023-05-24T09:23:29;99074.41;;;14.75
77414;BMP280;66486;49.992;19.164;2023-05-24T09:25:56;99078.53;;;14.80
77414;BMP280;66486;49.992;19.164;2023-05-24T09:28:22;99076.31;;;14.87
77414;BMP280;66486;49.992;19.164;2023-05-24T09:31:00;99064.75;;;14.61
77414;BMP280;66486;49.992;19.164;2023-05-24T09:33:31;99085.31;;;14.84
77414;BMP280;66486;49.992;19.164;2023-05-24T09:36:00;99083.59;;;14.90
77414;BMP280;66486;49.992;19.164;2023-05-24T09:38:26;99096.72;;;14.79
77414;BMP280;66486;49.992;19.164;2023-05-24T09:41:03;99090.59;;;14.53
77414;BMP280;66486;49.992;19.164;2023-05-24T09:43:33;99091.88;;;14.49
77414;BMP280;66486;49.992;19.164;2023-05-24T09:46:03;99088.81;;;14.47
77414;BMP280;66486;49.992;19.164;2023-05-24T09:48:29;99096.44;;;14.64
77414;BMP280;66486;49.992;19.164;2023-05-24T09:51:03;99088.72;;;14.63
77414;BMP280;66486;49.992;19.164;2023-05-24T09:53:31;99092.38;;;14.94
77414;BMP280;66486;49.992;19.164;2023-05-24T09:55:59;99094.00;;;14.79
77414;BMP280;66486;49.992;19.164;2023-05-24T09:58:30;99098.75;;;14.88
77414;BMP280;66486;49.992;19.164;2023-05-24T10:01:06;99095.81;;;14.95
77414;BMP280;66486;49.992;19.164;2023-05-24T10:03:35;99104.09;;;15.25
77414;BMP280;66486;49.992;19.164;2023-05-24T10:06:06;99103.69;;;15.14
77414;BMP280;66486;49.992;19.164;2023-05-24T10:08:33;99108.84;;;14.87
77414;BMP280;66486;49.992;19.164;2023-05-24T10:11:04;99110.69;;;14.90
77414;BMP280;66486;49.992;19.164;2023-05-24T10:13:34;99109.94;;;14.77
77414;BMP280;66486;49.992;19.164;2023-05-24T10:16:04;99121.53;;;14.77
77414;BMP280;66486;49.992;19.164;2023-05-24T10:18:30;99116.44;;;14.67
77414;BMP280;66486;49.992;19.164;2023-05-24T10:20:57;99114.59;;;14.89
77414;BMP280;66486;49.992;19.164;2023-05-24T10:23:27;99118.78;;;15.03
77414;BMP280;66486;49.992;19.164;2023-05-24T10:26:01;99126.50;;;14.92
77414;BMP280;66486;49.992;19.164;2023-05-24T10:28:29;99128.03;;;14.67
77414;BMP280;66486;49.992;19.164;2023-05-24T10:31:08;99116.69;;;14.60
77414;BMP280;66486;49.992;19.164;2023-05-24T10:33:35;99121.63;;;14.61
77414;BMP280;66486;49.992;19.164;2023-05-24T10:36:04;99112.09;;;14.69
77414;BMP280;66486;49.992;19.164;2023-05-24T10:38:31;99120.66;;;14.93
77414;BMP280;66486;49.992;19.164;2023-05-24T10:40:58;99121.63;;;14.87
77414;BMP280;66486;49.992;19.164;2023-05-24T10:43:25;99123.13;;;15.00
77414;BMP280;66486;49.992;19.164;2023-05-24T10:45:51;99122.41;;;14.74
77414;BMP280;66486;49.992;19.164;2023-05-24T10:50:49;99129.88;;;14.70
77414;BMP280;66486;49.992;19.164;2023-05-24T10:53:17;99141.34;;;14.49
77414;BMP280;66486;49.992;19.164;2023-05-24T10:55:54;99128.25;;;14.48
77414;BMP280;66486;49.992;19.164;2023-05-24T11:01:29;99129.97;;;14.92
77414;BMP280;66486;49.992;19.164;2023-05-24T11:04:09;99120.88;;;14.86
77414;BMP280;66486;49.992;19.164;2023-05-24T11:06:55;99135.72;;;14.94
77414;BMP280;66486;49.992;19.164;2023-05-24T11:09:21;99137.56;;;15.31
77414;BMP280;66486;49.992;19.164;2023-05-24T11:11:52;99124.22;;;15.37
77414;BMP280;66486;49.992;19.164;2023-05-24T11:14:24;99137.16;;;15.33
77414;BMP280;66486;49.992;19.164;2023-05-24T11:16:52;99138.19;;;15.48
77414;BMP280;66486;49.992;19.164;2023-05-24T11:19:20;99132.91;;;15.66
77414;BMP280;66486;49.992;19.164;2023-05-24T11:21:51;99143.41;;;16.07
77414;BMP280;66486;49.992;19.164;2023-05-24T11:24:23;99136.66;;;15.90
77414;BMP280;66486;49.992;19.164;2023-05-24T11:26:50;99144.28;;;16.04
77414;BMP280;66486;49.992;19.164;2023-05-24T11:29:18;99134.84;;;15.66
77414;BMP280;66486;49.992;19.164;2023-05-24T11:31:52;99125.38;;;15.70
77414;BMP280;66486;49.992;19.164;2023-05-24T11:34:19;99142.84;;;15.69
77414;BMP280;66486;49.992;19.164;2023-05-24T11:36:46;99142.59;;;15.98
77414;BMP280;66486;49.992;19.164;2023-05-24T11:39:13;99141.84;;;15.97
77414;BMP280;66486;49.992;19.164;2023-05-24T11:41:40;99130.84;;;15.79
77414;BMP280;66486;49.992;19.164;2023-05-24T11:44:07;99140.88;;;15.91
77414;BMP280;66486;49.992;19.164;2023-05-24T11:46:34;99126.31;;;15.98
77414;BMP280;66486;49.992;19.164;2023-05-24T11:49:00;99125.97;;;16.17
77414;BMP280;66486;49.992;19.164;2023-05-24T11:51:30;99131.84;;;16.56
77414;BMP280;66486;49.992;19.164;2023-05-24T11:53:57;99129.25;;;16.43
77414;BMP280;66486;49.992;19.164;2023-05-24T11:56:24;99130.94;;;16.50
77414;BMP280;66486;49.992;19.164;2023-05-24T11:59:18;99129.91;;;16.56
77414;BMP280;66486;49.992;19.164;2023-05-24T12:01:43;99143.16;;;16.54
77414;BMP280;66486;49.992;19.164;2023-05-24T12:04:09;99138.34;;;16.58
77414;BMP280;66486;49.992;19.164;2023-05-24T12:06:41;99125.06;;;16.60
77414;BMP280;66486;49.992;19.164;2023-05-24T12:09:08;99141.41;;;16.69
77414;BMP280;66486;49.992;19.164;2023-05-24T12:11:45;99148.28;;;17.10
77414;BMP280;66486;49.992;19.164;2023-05-24T12:14:16;99140.13;;;17.19
77414;BMP280;66486;49.992;19.164;2023-05-24T12:16:44;99136.66;;;16.91
77414;BMP280;66486;49.992;19.164;2023-05-24T12:19:20;99136.16;;;16.44
77414;BMP280;66486;49.992;19.164;2023-05-24T12:21:49;99135.19;;;16.60
77414;BMP280;66486;49.992;19.164;2023-05-24T12:24:18;99141.59;;;16.35
77414;BMP280;66486;49.992;19.164;2023-05-24T12:26:46;99137.91;;;16.20
77414;BMP280;66486;49.992;19.164;2023-05-24T12:29:13;99133.34;;;16.17
77414;BMP280;66486;49.992;19.164;2023-05-24T12:31:43;99133.56;;;16.32
77414;BMP280;66486;49.992;19.164;2023-05-24T12:34:18;99133.22;;;16.51
77414;BMP280;66486;49.992;19.164;2023-05-24T12:36:48;99137.34;;;16.83
77414;BMP280;66486;49.992;19.164;2023-05-24T12:41:53;99132.81;;;16.71
77414;BMP280;66486;49.992;19.164;2023-05-24T12:44:24;99122.56;;;16.84
77414;BMP280;66486;49.992;19.164;2023-05-24T12:46:55;99128.81;;;16.63
77414;BMP280;66486;49.992;19.164;2023-05-24T12:49:22;99133.75;;;16.86
77414;BMP280;66486;49.992;19.164;2023-05-24T12:51:49;99131.66;;;17.08
77414;BMP280;66486;49.992;19.164;2023-05-24T12:54:17;99137.09;;;17.08
77414;BMP280;66486;49.992;19.164;2023-05-24T12:56:44;99129.19;;;16.83
77414;BMP280;66486;49.992;19.164;2023-05-24T12:59:09;99137.72;;;17.03
77414;BMP280;66486;49.992;19.164;2023-05-24T13:01:36;99133.16;;;17.18
77414;BMP280;66486;49.992;19.164;2023-05-24T13:04:02;99138.19;;;17.20
77414;BMP280;66486;49.992;19.164;2023-05-24T13:06:29;99143.00;;;17.16
77414;BMP280;66486;49.992;19.164;2023-05-24T13:08:54;99143.44;;;17.05
77414;BMP280;66486;49.992;19.164;2023-05-24T13:11:21;99130.75;;;16.93
77414;BMP280;66486;49.992;19.164;2023-05-24T13:13:50;99129.84;;;17.14
77414;BMP280;66486;49.992;19.164;2023-05-24T13:16:16;99140.69;;;17.68
77414;BMP280;66486;49.992;19.164;2023-05-24T13:18:42;99135.72;;;17.58
77414;BMP280;66486;49.992;19.164;2023-05-24T13:21:09;99135.31;;;17.41
77414;BMP280;66486;49.992;19.164;2023-05-24T13:23:35;99134.25;;;17.12
77414;BMP280;66486;49.992;19.164;2023-05-24T13:26:02;99130.50;;;17.27
77414;BMP280;66486;49.992;19.164;2023-05-24T13:28:32;99134.56;;;17.23
77414;BMP280;66486;49.992;19.164;2023-05-24T13:30:59;99140.13;;;17.01
77414;BMP280;66486;49.992;19.164;2023-05-24T13:33:25;99126.09;;;17.21
77414;BMP280;66486;49.992;19.164;2023-05-24T13:35:52;99125.94;;;17.06
77414;BMP280;66486;49.992;19.164;2023-05-24T13:38:22;99141.41;;;16.78
77414;BMP280;66486;49.992;19.164;2023-05-24T13:40:48;99125.25;;;16.75
77414;BMP280;66486;49.992;19.164;2023-05-24T13:43:14;99129.53;;;16.94
77414;BMP280;66486;49.992;19.164;2023-05-24T13:45:41;99122.56;;;16.84
77414;BMP280;66486;49.992;19.164;2023-05-24T13:48:06;99130.91;;;16.98
77414;BMP280;66486;49.992;19.164;2023-05-24T13:50:33;99128.00;;;16.84
77414;BMP280;66486;49.992;19.164;2023-05-24T13:53:00;99120.25;;;16.73
77414;BMP280;66486;49.992;19.164;2023-05-24T13:55:30;99118.19;;;16.77
77414;BMP280;66486;49.992;19.164;2023-05-24T13:57:57;99130.00;;;17.01
77414;BMP280;66486;49.992;19.164;2023-05-24T14:00:23;99123.16;;;16.79
77414;BMP280;66486;49.992;19.164;2023-05-24T14:02:50;99128.50;;;17.19
77414;BMP280;66486;49.992;19.164;2023-05-24T14:05:17;99124.56;;;17.29
77414;BMP280;66486;49.992;19.164;2023-05-24T14:07:44;99130.63;;;17.05
77414;BMP280;66486;49.992;19.164;2023-05-24T14:10:10;99119.41;;;17.03
77414;BMP280;66486;49.992;19.164;2023-05-24T14:12:36;99124.72;;;17.07
77414;BMP280;66486;49.992;19.164;2023-05-24T14:15:03;99123.03;;;17.00
77414;BMP280;66486;49.992;19.164;2023-05-24T14:17:31;99125.44;;;16.80
77414;BMP280;66486;49.992;19.164;2023-05-24T14:19:58;99125.41;;;16.71
77414;BMP280;66486;49.992;19.164;2023-05-24T14:22:24;99104.38;;;16.63